sensor_id;sensor_type;location;lat;lon;timestamp;P1;durP1;ratioP1;P2;durP2;ratioP2
49812;SDS011;35706;52.100;5.056;2023-06-26T00:00:36;2.22;;;1.45;;
49812;SDS011;35706;52.100;5.056;2023-06-26T00:01:37;3.60;;;2.03;;
49812;SDS011;35706;52.100;5.056;2023-06-26T00:02:39;5.15;;;1.83;;
49812;SDS011;35706;52.100;5.056;2023-06-26T00:03:40;2.25;;;1.67;;
49812;SDS011;35706;52.100;5.056;2023-06-26T00:04:41;2.67;;;1.40;;
49812;SDS011;35706;52.100;5.056;2023-06-26T00:05:43;2.30;;;1.63;;
49812;SDS011;35706;52.100;5.056;2023-06-26T00:06:43;3.20;;;1.67;;
49812;SDS011;35706;52.100;5.056;2023-06-26T00:07:43;1.77;;;1.63;;
49812;SDS011;35706;52.100;5.056;2023-06-26T00:08:44;2.13;;;1.77;;
49812;SDS011;35706;52.100;5.056;2023-06-26T00:09:44;2.85;;;1.10;;
49812;SDS011;35706;52.100;5.056;2023-06-26T00:10:44;1.92;;;1.13;;
49812;SDS011;35706;52.100;5.056;2023-06-26T00:11:49;4.50;;;1.55;;
49812;SDS011;35706;52.100;5.056;2023-06-26T00:12:49;1.88;;;1.45;;
49812;SDS011;35706;52.100;5.056;2023-06-26T00:13:50;2.97;;;1.50;;
49812;SDS011;35706;52.100;5.056;2023-06-26T00:14:50;1.92;;;1.50;;
49812;SDS011;35706;52.100;5.056;2023-06-26T00:15:50;3.15;;;1.60;;
49812;SDS011;35706;52.100;5.056;2023-06-26T00:16:51;2.47;;;1.88;;
49812;SDS011;35706;52.100;5.056;2023-06-26T00:17:52;2.60;;;2.00;;
49812;SDS011;35706;52.100;5.056;2023-06-26T00:18:52;1.60;;;1.40;;
49812;SDS011;35706;52.100;5.056;2023-06-26T00:19:53;4.45;;;1.70;;
49812;SDS011;35706;52.100;5.056;2023-06-26T00:20:54;4.80;;;1.60;;
49812;SDS011;35706;52.100;5.056;2023-06-26T00:21:54;2.25;;;2.05;;
49812;SDS011;35706;52.100;5.056;2023-06-26T00:22:54;2.30;;;1.77;;
49812;SDS011;35706;52.100;5.056;2023-06-26T00:23:58;4.18;;;1.90;;
49812;SDS011;35706;52.100;5.056;2023-06-26T00:24:59;4.60;;;2.28;;
49812;SDS011;35706;52.100;5.056;2023-06-26T00:25:59;3.33;;;1.73;;
49812;SDS011;35706;52.100;5.056;2023-06-26T00:27:01;2.88;;;2.13;;
49812;SDS011;35706;52.100;5.056;2023-06-26T00:28:01;2.13;;;1.92;;
49812;SDS011;35706;52.100;5.056;2023-06-26T00:29:02;1.70;;;1.40;;
49812;SDS011;35706;52.100;5.056;2023-06-26T00:30:02;7.10;;;2.38;;
49812;SDS011;35706;52.100;5.056;2023-06-26T00:31:03;3.45;;;2.00;;
49812;SDS011;35706;52.100;5.056;2023-06-26T00:32:03;4.38;;;1.75;;
49812;SDS011;35706;52.100;5.056;2023-06-26T00:33:04;2.28;;;1.42;;
49812;SDS011;35706;52.100;5.056;2023-06-26T00:34:04;3.38;;;2.35;;
49812;SDS011;35706;52.100;5.056;2023-06-26T00:35:05;2.67;;;1.63;;
49812;SDS011;35706;52.100;5.056;2023-06-26T00:36:05;2.13;;;1.92;;
49812;SDS011;35706;52.100;5.056;2023-06-26T00:37:06;2.22;;;2.03;;
49812;SDS011;35706;52.100;5.056;2023-06-26T00:38:06;2.42;;;2.22;;
49812;SDS011;35706;52.100;5.056;2023-06-26T00:39:06;2.30;;;2.10;;
49812;SDS011;35706;52.100;5.056;2023-06-26T00:40:07;4.30;;;1.60;;
49812;SDS011;35706;52.100;5.056;2023-06-26T00:41:07;2.63;;;2.38;;
49812;SDS011;35706;52.100;5.056;2023-06-26T00:42:12;2.30;;;2.00;;
49812;SDS011;35706;52.100;5.056;2023-06-26T00:43:12;4.38;;;1.77;;
49812;SDS011;35706;52.100;5.056;2023-06-26T00:44:13;2.85;;;2.65;;
49812;SDS011;35706;52.100;5.056;2023-06-26T00:45:13;2.08;;;1.88;;
49812;SDS011;35706;52.100;5.056;2023-06-26T00:46:14;3.30;;;1.95;;
49812;SDS011;35706;52.100;5.056;2023-06-26T00:47:15;2.80;;;1.80;;
49812;SDS011;35706;52.100;5.056;2023-06-26T00:48:16;2.38;;;2.17;;
49812;SDS011;35706;52.100;5.056;2023-06-26T00:49:17;4.20;;;2.80;;
49812;SDS011;35706;52.100;5.056;2023-06-26T00:50:18;4.82;;;2.40;;
49812;SDS011;35706;52.100;5.056;2023-06-26T00:51:18;3.30;;;3.10;;
49812;SDS011;35706;52.100;5.056;2023-06-26T00:52:19;4.57;;;2.70;;
49812;SDS011;35706;52.100;5.056;2023-06-26T00:53:19;3.58;;;3.25;;
49812;SDS011;35706;52.100;5.056;2023-06-26T00:54:20;4.40;;;3.28;;
49812;SDS011;35706;52.100;5.056;2023-06-26T00:55:22;3.90;;;2.80;;
49812;SDS011;35706;52.100;5.056;2023-06-26T00:56:23;4.60;;;3.25;;
49812;SDS011;35706;52.100;5.056;2023-06-26T00:57:23;3.08;;;2.75;;
49812;SDS011;35706;52.100;5.056;2023-06-26T00:58:24;3.30;;;3.03;;
49812;SDS011;35706;52.100;5.056;2023-06-26T00:59:25;2.60;;;2.40;;
49812;SDS011;35706;52.100;5.056;2023-06-26T01:00:25;2.63;;;2.42;;
49812;SDS011;35706;52.100;5.056;2023-06-26T01:01:26;3.00;;;2.80;;
49812;SDS011;35706;52.100;5.056;2023-06-26T01:02:26;4.55;;;3.17;;
49812;SDS011;35706;52.100;5.056;2023-06-26T01:03:33;4.32;;;3.47;;
49812;SDS011;35706;52.100;5.056;2023-06-26T01:04:33;5.85;;;3.03;;
49812;SDS011;35706;52.100;5.056;2023-06-26T01:05:34;4.07;;;3.22;;
49812;SDS011;35706;52.100;5.056;2023-06-26T01:06:35;3.63;;;2.95;;
49812;SDS011;35706;52.100;5.056;2023-06-26T01:07:35;9.05;;;3.20;;
49812;SDS011;35706;52.100;5.056;2023-06-26T01:08:37;3.28;;;2.58;;
49812;SDS011;35706;52.100;5.056;2023-06-26T01:09:39;3.08;;;2.17;;
49812;SDS011;35706;52.100;5.056;2023-06-26T01:10:40;4.43;;;2.13;;
49812;SDS011;35706;52.100;5.056;2023-06-26T01:11:40;4.85;;;2.13;;
49812;SDS011;35706;52.100;5.056;2023-06-26T01:12:41;1.77;;;1.67;;
49812;SDS011;35706;52.100;5.056;2023-06-26T01:13:42;3.15;;;1.48;;
49812;SDS011;35706;52.100;5.056;2023-06-26T01:14:44;7.18;;;1.52;;
49812;SDS011;35706;52.100;5.056;2023-06-26T01:15:44;4.78;;;1.70;;
49812;SDS011;35706;52.100;5.056;2023-06-26T01:16:46;4.53;;;1.55;;
49812;SDS011;35706;52.100;5.056;2023-06-26T01:17:50;2.22;;;1.20;;
49812;SDS011;35706;52.100;5.056;2023-06-26T01:18:51;2.95;;;1.23;;
49812;SDS011;35706;52.100;5.056;2023-06-26T01:19:55;2.55;;;1.00;;
49812;SDS011;35706;52.100;5.056;2023-06-26T01:20:56;4.22;;;1.30;;
49812;SDS011;35706;52.100;5.056;2023-06-26T01:24:22;4.03;;;1.10;;
49812;SDS011;35706;52.100;5.056;2023-06-26T01:25:33;2.80;;;1.05;;
49812;SDS011;35706;52.100;5.056;2023-06-26T01:26:41;3.42;;;0.90;;
49812;SDS011;35706;52.100;5.056;2023-06-26T01:27:42;5.15;;;1.00;;
49812;SDS011;35706;52.100;5.056;2023-06-26T01:28:45;2.38;;;1.00;;
49812;SDS011;35706;52.100;5.056;2023-06-26T01:29:47;3.20;;;1.30;;
49812;SDS011;35706;52.100;5.056;2023-06-26T01:30:49;4.47;;;1.05;;
49812;SDS011;35706;52.100;5.056;2023-06-26T01:31:51;5.13;;;1.20;;
49812;SDS011;35706;52.100;5.056;2023-06-26T01:32:51;5.22;;;1.10;;
49812;SDS011;35706;52.100;5.056;2023-06-26T01:33:52;2.78;;;1.00;;
49812;SDS011;35706;52.100;5.056;2023-06-26T01:34:52;2.97;;;1.05;;
49812;SDS011;35706;52.100;5.056;2023-06-26T01:35:53;6.43;;;0.90;;
49812;SDS011;35706;52.100;5.056;2023-06-26T01:36:53;5.53;;;0.90;;
49812;SDS011;35706;52.100;5.056;2023-06-26T01:37:54;5.93;;;1.00;;
49812;SDS011;35706;52.100;5.056;2023-06-26T01:39:18;6.05;;;1.10;;
49812;SDS011;35706;52.100;5.056;2023-06-26T01:40:19;4.10;;;0.98;;
49812;SDS011;35706;52.100;5.056;2023-06-26T01:41:19;5.05;;;0.85;;
49812;SDS011;35706;52.100;5.056;2023-06-26T01:42:20;3.83;;;0.90;;
49812;SDS011;35706;52.100;5.056;2023-06-26T01:44:44;3.45;;;1.10;;
49812;SDS011;35706;52.100;5.056;2023-06-26T01:45:46;4.25;;;0.88;;
49812;SDS011;35706;52.100;5.056;2023-06-26T01:46:55;4.82;;;0.90;;
49812;SDS011;35706;52.100;5.056;2023-06-26T01:48:04;2.80;;;1.00;;
49812;SDS011;35706;52.100;5.056;2023-06-26T01:50:16;3.45;;;1.00;;
49812;SDS011;35706;52.100;5.056;2023-06-26T01:51:18;4.57;;;0.93;;
49812;SDS011;35706;52.100;5.056;2023-06-26T01:52:45;4.53;;;0.93;;
49812;SDS011;35706;52.100;5.056;2023-06-26T01:53:54;5.97;;;1.02;;
49812;SDS011;35706;52.100;5.056;2023-06-26T01:56:35;4.43;;;0.90;;
49812;SDS011;35706;52.100;5.056;2023-06-26T01:57:39;3.58;;;0.82;;
49812;SDS011;35706;52.100;5.056;2023-06-26T01:58:43;5.20;;;1.08;;
49812;SDS011;35706;52.100;5.056;2023-06-26T01:59:46;7.20;;;0.82;;
49812;SDS011;35706;52.100;5.056;2023-06-26T02:00:47;8.73;;;1.00;;
49812;SDS011;35706;52.100;5.056;2023-06-26T02:01:48;3.92;;;1.02;;
49812;SDS011;35706;52.100;5.056;2023-06-26T02:02:49;8.25;;;0.80;;
49812;SDS011;35706;52.100;5.056;2023-06-26T02:03:49;6.10;;;0.90;;
49812;SDS011;35706;52.100;5.056;2023-06-26T02:04:50;6.53;;;1.02;;
49812;SDS011;35706;52.100;5.056;2023-06-26T02:05:51;7.05;;;0.85;;
49812;SDS011;35706;52.100;5.056;2023-06-26T02:06:52;6.82;;;1.00;;
49812;SDS011;35706;52.100;5.056;2023-06-26T02:07:52;9.77;;;0.80;;
49812;SDS011;35706;52.100;5.056;2023-06-26T02:08:53;6.32;;;1.00;;
49812;SDS011;35706;52.100;5.056;2023-06-26T02:09:56;10.63;;;1.10;;
49812;SDS011;35706;52.100;5.056;2023-06-26T02:10:56;7.28;;;1.00;;
49812;SDS011;35706;52.100;5.056;2023-06-26T02:11:57;7.03;;;0.90;;
49812;SDS011;35706;52.100;5.056;2023-06-26T02:12:57;4.47;;;0.80;;
49812;SDS011;35706;52.100;5.056;2023-06-26T02:13:57;5.75;;;0.80;;
49812;SDS011;35706;52.100;5.056;2023-06-26T02:14:58;8.77;;;0.98;;
49812;SDS011;35706;52.100;5.056;2023-06-26T02:15:58;7.32;;;1.10;;
49812;SDS011;35706;52.100;5.056;2023-06-26T02:16:59;8.93;;;1.00;;
49812;SDS011;35706;52.100;5.056;2023-06-26T02:18:00;8.18;;;0.90;;
49812;SDS011;35706;52.100;5.056;2023-06-26T02:19:00;5.97;;;0.90;;
49812;SDS011;35706;52.100;5.056;2023-06-26T02:20:00;6.93;;;0.90;;
49812;SDS011;35706;52.100;5.056;2023-06-26T02:21:02;9.25;;;0.80;;
49812;SDS011;35706;52.100;5.056;2023-06-26T02:22:04;6.30;;;0.90;;
49812;SDS011;35706;52.100;5.056;2023-06-26T02:23:04;3.65;;;0.90;;
49812;SDS011;35706;52.100;5.056;2023-06-26T02:24:05;7.07;;;0.90;;
49812;SDS011;35706;52.100;5.056;2023-06-26T02:25:05;4.75;;;0.80;;
49812;SDS011;35706;52.100;5.056;2023-06-26T02:26:06;6.65;;;0.90;;
49812;SDS011;35706;52.100;5.056;2023-06-26T02:27:06;4.18;;;1.05;;
49812;SDS011;35706;52.100;5.056;2023-06-26T02:28:07;5.65;;;0.80;;
49812;SDS011;35706;52.100;5.056;2023-06-26T02:29:07;10.10;;;1.30;;
49812;SDS011;35706;52.100;5.056;2023-06-26T02:30:08;5.82;;;0.90;;
49812;SDS011;35706;52.100;5.056;2023-06-26T02:31:09;8.02;;;1.05;;
49812;SDS011;35706;52.100;5.056;2023-06-26T02:32:09;7.07;;;1.00;;
49812;SDS011;35706;52.100;5.056;2023-06-26T02:33:09;8.25;;;0.82;;
49812;SDS011;35706;52.100;5.056;2023-06-26T02:34:10;6.55;;;1.00;;
49812;SDS011;35706;52.100;5.056;2023-06-26T02:35:10;11.52;;;1.00;;
49812;SDS011;35706;52.100;5.056;2023-06-26T02:36:11;5.10;;;0.90;;
49812;SDS011;35706;52.100;5.056;2023-06-26T02:37:11;7.63;;;1.20;;
49812;SDS011;35706;52.100;5.056;2023-06-26T02:38:11;6.43;;;0.90;;
49812;SDS011;35706;52.100;5.056;2023-06-26T02:39:13;10.07;;;1.20;;
49812;SDS011;35706;52.100;5.056;2023-06-26T02:40:14;6.88;;;1.00;;
49812;SDS011;35706;52.100;5.056;2023-06-26T02:41:14;5.65;;;1.02;;
49812;SDS011;35706;52.100;5.056;2023-06-26T02:42:15;7.82;;;0.90;;
49812;SDS011;35706;52.100;5.056;2023-06-26T02:43:15;12.63;;;1.10;;
49812;SDS011;35706;52.100;5.056;2023-06-26T02:44:16;8.90;;;1.13;;
49812;SDS011;35706;52.100;5.056;2023-06-26T02:45:16;7.53;;;1.10;;
49812;SDS011;35706;52.100;5.056;2023-06-26T02:46:17;8.05;;;1.40;;
49812;SDS011;35706;52.100;5.056;2023-06-26T02:47:17;9.63;;;1.00;;
49812;SDS011;35706;52.100;5.056;2023-06-26T02:48:17;11.80;;;1.08;;
49812;SDS011;35706;52.100;5.056;2023-06-26T02:49:18;9.82;;;1.00;;
49812;SDS011;35706;52.100;5.056;2023-06-26T02:50:18;6.85;;;1.05;;
49812;SDS011;35706;52.100;5.056;2023-06-26T02:51:18;8.98;;;1.08;;
49812;SDS011;35706;52.100;5.056;2023-06-26T02:52:18;9.15;;;0.90;;
49812;SDS011;35706;52.100;5.056;2023-06-26T02:53:20;7.88;;;0.95;;
49812;SDS011;35706;52.100;5.056;2023-06-26T02:54:20;4.97;;;1.00;;
49812;SDS011;35706;52.100;5.056;2023-06-26T02:55:20;8.05;;;1.00;;
49812;SDS011;35706;52.100;5.056;2023-06-26T02:56:21;6.38;;;1.00;;
49812;SDS011;35706;52.100;5.056;2023-06-26T02:57:21;6.63;;;1.40;;
49812;SDS011;35706;52.100;5.056;2023-06-26T02:58:21;7.50;;;1.00;;
49812;SDS011;35706;52.100;5.056;2023-06-26T02:59:22;7.38;;;0.95;;
49812;SDS011;35706;52.100;5.056;2023-06-26T03:00:22;8.57;;;0.90;;
49812;SDS011;35706;52.100;5.056;2023-06-26T03:01:23;7.95;;;0.80;;
49812;SDS011;35706;52.100;5.056;2023-06-26T03:02:23;8.23;;;1.15;;
49812;SDS011;35706;52.100;5.056;2023-06-26T03:03:23;8.98;;;1.02;;
49812;SDS011;35706;52.100;5.056;2023-06-26T03:04:23;7.70;;;1.00;;
49812;SDS011;35706;52.100;5.056;2023-06-26T03:05:24;9.02;;;1.00;;
49812;SDS011;35706;52.100;5.056;2023-06-26T03:06:24;5.47;;;0.95;;
49812;SDS011;35706;52.100;5.056;2023-06-26T03:07:25;7.72;;;1.00;;
49812;SDS011;35706;52.100;5.056;2023-06-26T03:08:25;9.13;;;1.00;;
49812;SDS011;35706;52.100;5.056;2023-06-26T03:09:25;6.75;;;1.23;;
49812;SDS011;35706;52.100;5.056;2023-06-26T03:10:26;9.15;;;1.00;;
49812;SDS011;35706;52.100;5.056;2023-06-26T03:11:26;7.35;;;1.10;;
49812;SDS011;35706;52.100;5.056;2023-06-26T03:12:26;7.28;;;1.02;;
49812;SDS011;35706;52.100;5.056;2023-06-26T03:13:27;7.28;;;1.33;;
49812;SDS011;35706;52.100;5.056;2023-06-26T03:14:28;13.40;;;1.05;;
49812;SDS011;35706;52.100;5.056;2023-06-26T03:15:28;6.68;;;0.90;;
49812;SDS011;35706;52.100;5.056;2023-06-26T03:16:29;10.23;;;1.10;;
49812;SDS011;35706;52.100;5.056;2023-06-26T03:17:29;7.88;;;1.00;;
49812;SDS011;35706;52.100;5.056;2023-06-26T03:18:29;8.13;;;1.40;;
49812;SDS011;35706;52.100;5.056;2023-06-26T03:19:30;7.72;;;1.15;;
49812;SDS011;35706;52.100;5.056;2023-06-26T03:20:30;10.23;;;1.77;;
49812;SDS011;35706;52.100;5.056;2023-06-26T03:21:31;8.70;;;1.02;;
49812;SDS011;35706;52.100;5.056;2023-06-26T03:22:33;8.93;;;1.10;;
49812;SDS011;35706;52.100;5.056;2023-06-26T03:23:33;9.13;;;1.17;;
49812;SDS011;35706;52.100;5.056;2023-06-26T03:24:34;9.05;;;1.05;;
49812;SDS011;35706;52.100;5.056;2023-06-26T03:25:34;9.05;;;1.10;;
49812;SDS011;35706;52.100;5.056;2023-06-26T03:26:35;11.75;;;1.20;;
49812;SDS011;35706;52.100;5.056;2023-06-26T03:27:35;7.65;;;1.00;;
49812;SDS011;35706;52.100;5.056;2023-06-26T03:28:35;15.93;;;1.23;;
49812;SDS011;35706;52.100;5.056;2023-06-26T03:29:36;13.00;;;1.25;;
49812;SDS011;35706;52.100;5.056;2023-06-26T03:30:36;8.40;;;1.30;;
49812;SDS011;35706;52.100;5.056;2023-06-26T03:31:36;7.93;;;1.00;;
49812;SDS011;35706;52.100;5.056;2023-06-26T03:32:37;12.13;;;1.23;;
49812;SDS011;35706;52.100;5.056;2023-06-26T03:33:37;8.25;;;1.45;;
49812;SDS011;35706;52.100;5.056;2023-06-26T03:34:38;8.55;;;1.38;;
49812;SDS011;35706;52.100;5.056;2023-06-26T03:35:38;8.10;;;1.15;;
49812;SDS011;35706;52.100;5.056;2023-06-26T03:36:38;13.20;;;1.08;;
49812;SDS011;35706;52.100;5.056;2023-06-26T03:37:39;12.32;;;1.90;;
49812;SDS011;35706;52.100;5.056;2023-06-26T03:38:40;7.82;;;1.23;;
49812;SDS011;35706;52.100;5.056;2023-06-26T03:39:41;14.70;;;1.92;;
49812;SDS011;35706;52.100;5.056;2023-06-26T03:40:41;9.15;;;1.13;;
49812;SDS011;35706;52.100;5.056;2023-06-26T03:41:42;13.10;;;1.25;;
49812;SDS011;35706;52.100;5.056;2023-06-26T03:42:42;9.05;;;1.10;;
49812;SDS011;35706;52.100;5.056;2023-06-26T03:43:42;13.57;;;1.77;;
49812;SDS011;35706;52.100;5.056;2023-06-26T03:44:42;6.85;;;1.20;;
49812;SDS011;35706;52.100;5.056;2023-06-26T03:45:43;9.95;;;1.20;;
49812;SDS011;35706;52.100;5.056;2023-06-26T03:46:43;15.60;;;1.23;;
49812;SDS011;35706;52.100;5.056;2023-06-26T03:47:44;7.35;;;1.10;;
49812;SDS011;35706;52.100;5.056;2023-06-26T03:48:44;9.65;;;1.33;;
49812;SDS011;35706;52.100;5.056;2023-06-26T03:49:44;9.30;;;1.23;;
49812;SDS011;35706;52.100;5.056;2023-06-26T03:50:45;7.43;;;1.13;;
49812;SDS011;35706;52.100;5.056;2023-06-26T03:51:45;5.75;;;1.30;;
49812;SDS011;35706;52.100;5.056;2023-06-26T03:52:46;9.45;;;1.15;;
49812;SDS011;35706;52.100;5.056;2023-06-26T03:53:46;12.18;;;1.50;;
49812;SDS011;35706;52.100;5.056;2023-06-26T03:54:46;9.18;;;1.30;;
49812;SDS011;35706;52.100;5.056;2023-06-26T03:55:48;9.57;;;1.17;;
49812;SDS011;35706;52.100;5.056;2023-06-26T03:56:49;8.88;;;1.42;;
49812;SDS011;35706;52.100;5.056;2023-06-26T03:57:49;8.65;;;1.33;;
49812;SDS011;35706;52.100;5.056;2023-06-26T03:58:49;13.00;;;1.27;;
49812;SDS011;35706;52.100;5.056;2023-06-26T03:59:50;10.70;;;1.30;;
49812;SDS011;35706;52.100;5.056;2023-06-26T04:00:52;7.90;;;1.13;;
49812;SDS011;35706;52.100;5.056;2023-06-26T04:01:53;11.50;;;1.15;;
49812;SDS011;35706;52.100;5.056;2023-06-26T04:02:53;9.82;;;1.30;;
49812;SDS011;35706;52.100;5.056;2023-06-26T04:03:54;11.80;;;0.95;;
49812;SDS011;35706;52.100;5.056;2023-06-26T04:04:54;9.75;;;1.15;;
49812;SDS011;35706;52.100;5.056;2023-06-26T04:05:56;13.30;;;1.80;;
49812;SDS011;35706;52.100;5.056;2023-06-26T04:06:56;9.07;;;1.13;;
49812;SDS011;35706;52.100;5.056;2023-06-26T04:07:59;8.68;;;1.10;;
49812;SDS011;35706;52.100;5.056;2023-06-26T04:08:59;11.05;;;1.08;;
49812;SDS011;35706;52.100;5.056;2023-06-26T04:09:59;10.52;;;0.95;;
49812;SDS011;35706;52.100;5.056;2023-06-26T04:11:00;13.63;;;1.50;;
49812;SDS011;35706;52.100;5.056;2023-06-26T04:12:01;7.40;;;0.90;;
49812;SDS011;35706;52.100;5.056;2023-06-26T04:13:01;8.05;;;0.98;;
49812;SDS011;35706;52.100;5.056;2023-06-26T04:14:02;7.82;;;1.20;;
49812;SDS011;35706;52.100;5.056;2023-06-26T04:15:02;9.50;;;1.33;;
49812;SDS011;35706;52.100;5.056;2023-06-26T04:16:06;9.65;;;1.15;;
49812;SDS011;35706;52.100;5.056;2023-06-26T04:17:06;12.20;;;0.98;;
49812;SDS011;35706;52.100;5.056;2023-06-26T04:18:07;10.40;;;1.15;;
49812;SDS011;35706;52.100;5.056;2023-06-26T04:19:07;9.10;;;0.90;;
49812;SDS011;35706;52.100;5.056;2023-06-26T04:20:10;10.10;;;1.20;;
49812;SDS011;35706;52.100;5.056;2023-06-26T04:21:11;5.68;;;1.00;;
49812;SDS011;35706;52.100;5.056;2023-06-26T04:22:12;10.63;;;0.95;;
49812;SDS011;35706;52.100;5.056;2023-06-26T04:23:12;10.50;;;0.90;;
49812;SDS011;35706;52.100;5.056;2023-06-26T04:24:13;17.30;;;1.10;;
49812;SDS011;35706;52.100;5.056;2023-06-26T04:25:13;8.77;;;1.08;;
49812;SDS011;35706;52.100;5.056;2023-06-26T04:26:13;8.20;;;0.90;;
49812;SDS011;35706;52.100;5.056;2023-06-26T04:27:14;8.13;;;1.20;;
49812;SDS011;35706;52.100;5.056;2023-06-26T04:28:14;12.35;;;1.30;;
49812;SDS011;35706;52.100;5.056;2023-06-26T04:29:15;15.38;;;1.40;;
49812;SDS011;35706;52.100;5.056;2023-06-26T04:30:15;9.48;;;1.17;;
49812;SDS011;35706;52.100;5.056;2023-06-26T04:31:15;7.15;;;1.08;;
49812;SDS011;35706;52.100;5.056;2023-06-26T04:32:16;4.78;;;1.10;;
49812;SDS011;35706;52.100;5.056;2023-06-26T04:33:16;10.25;;;1.05;;
49812;SDS011;35706;52.100;5.056;2023-06-26T04:34:17;13.18;;;1.17;;
49812;SDS011;35706;52.100;5.056;2023-06-26T04:35:17;7.93;;;1.10;;
49812;SDS011;35706;52.100;5.056;2023-06-26T04:36:17;12.50;;;1.02;;
49812;SDS011;35706;52.100;5.056;2023-06-26T04:37:19;12.93;;;1.20;;
49812;SDS011;35706;52.100;5.056;2023-06-26T04:38:19;10.52;;;1.45;;
49812;SDS011;35706;52.100;5.056;2023-06-26T04:39:21;7.35;;;1.30;;
49812;SDS011;35706;52.100;5.056;2023-06-26T04:40:21;6.88;;;1.00;;
49812;SDS011;35706;52.100;5.056;2023-06-26T04:41:22;6.45;;;0.90;;
49812;SDS011;35706;52.100;5.056;2023-06-26T04:42:22;7.15;;;0.90;;
49812;SDS011;35706;52.100;5.056;2023-06-26T04:43:23;8.02;;;1.17;;
49812;SDS011;35706;52.100;5.056;2023-06-26T04:44:23;7.28;;;0.80;;
49812;SDS011;35706;52.100;5.056;2023-06-26T04:45:23;8.88;;;0.90;;
49812;SDS011;35706;52.100;5.056;2023-06-26T04:46:24;8.40;;;1.00;;
49812;SDS011;35706;52.100;5.056;2023-06-26T04:47:24;7.55;;;0.80;;
49812;SDS011;35706;52.100;5.056;2023-06-26T04:48:24;7.50;;;1.00;;
49812;SDS011;35706;52.100;5.056;2023-06-26T04:49:27;9.52;;;0.90;;
49812;SDS011;35706;52.100;5.056;2023-06-26T04:50:27;3.75;;;0.85;;
49812;SDS011;35706;52.100;5.056;2023-06-26T04:51:28;7.28;;;1.00;;
49812;SDS011;35706;52.100;5.056;2023-06-26T04:52:29;6.80;;;0.95;;
49812;SDS011;35706;52.100;5.056;2023-06-26T04:53:29;7.68;;;0.90;;
49812;SDS011;35706;52.100;5.056;2023-06-26T04:54:29;9.02;;;1.00;;
49812;SDS011;35706;52.100;5.056;2023-06-26T04:55:30;7.88;;;1.10;;
49812;SDS011;35706;52.100;5.056;2023-06-26T04:56:30;12.73;;;1.15;;
49812;SDS011;35706;52.100;5.056;2023-06-26T04:57:30;6.10;;;1.08;;
49812;SDS011;35706;52.100;5.056;2023-06-26T04:58:31;6.28;;;1.00;;
49812;SDS011;35706;52.100;5.056;2023-06-26T04:59:32;5.55;;;1.00;;
49812;SDS011;35706;52.100;5.056;2023-06-26T05:00:32;3.67;;;0.90;;
49812;SDS011;35706;52.100;5.056;2023-06-26T05:01:35;8.45;;;1.10;;
49812;SDS011;35706;52.100;5.056;2023-06-26T05:02:39;7.43;;;0.90;;
49812;SDS011;35706;52.100;5.056;2023-06-26T05:03:39;7.63;;;1.05;;
49812;SDS011;35706;52.100;5.056;2023-06-26T05:04:40;4.55;;;0.80;;
49812;SDS011;35706;52.100;5.056;2023-06-26T05:05:42;8.48;;;1.00;;
49812;SDS011;35706;52.100;5.056;2023-06-26T05:06:43;5.57;;;0.90;;
49812;SDS011;35706;52.100;5.056;2023-06-26T05:07:43;4.25;;;0.80;;
49812;SDS011;35706;52.100;5.056;2023-06-26T05:08:44;7.10;;;1.08;;
49812;SDS011;35706;52.100;5.056;2023-06-26T05:09:44;7.80;;;0.93;;
49812;SDS011;35706;52.100;5.056;2023-06-26T05:10:45;7.35;;;1.00;;
49812;SDS011;35706;52.100;5.056;2023-06-26T05:11:45;7.22;;;0.80;;
49812;SDS011;35706;52.100;5.056;2023-06-26T05:12:45;6.28;;;0.77;;
49812;SDS011;35706;52.100;5.056;2023-06-26T05:13:46;3.05;;;0.70;;
49812;SDS011;35706;52.100;5.056;2023-06-26T05:14:46;6.05;;;0.80;;
49812;SDS011;35706;52.100;5.056;2023-06-26T05:15:47;7.20;;;0.80;;
49812;SDS011;35706;52.100;5.056;2023-06-26T05:16:47;10.13;;;1.23;;
49812;SDS011;35706;52.100;5.056;2023-06-26T05:17:47;7.07;;;0.90;;
49812;SDS011;35706;52.100;5.056;2023-06-26T05:18:47;6.00;;;0.85;;
49812;SDS011;35706;52.100;5.056;2023-06-26T05:19:48;4.97;;;1.10;;
49812;SDS011;35706;52.100;5.056;2023-06-26T05:20:48;3.40;;;0.80;;
49812;SDS011;35706;52.100;5.056;2023-06-26T05:21:49;3.97;;;0.70;;
49812;SDS011;35706;52.100;5.056;2023-06-26T05:22:50;8.13;;;0.70;;
49812;SDS011;35706;52.100;5.056;2023-06-26T05:23:52;5.80;;;0.75;;
49812;SDS011;35706;52.100;5.056;2023-06-26T05:24:56;5.45;;;0.60;;
49812;SDS011;35706;52.100;5.056;2023-06-26T05:26:00;3.08;;;0.70;;
49812;SDS011;35706;52.100;5.056;2023-06-26T05:27:02;6.90;;;0.70;;
49812;SDS011;35706;52.100;5.056;2023-06-26T05:28:03;7.20;;;0.70;;
49812;SDS011;35706;52.100;5.056;2023-06-26T05:29:10;4.18;;;0.70;;
49812;SDS011;35706;52.100;5.056;2023-06-26T05:30:10;3.40;;;0.60;;
49812;SDS011;35706;52.100;5.056;2023-06-26T05:31:12;3.55;;;0.60;;
49812;SDS011;35706;52.100;5.056;2023-06-26T05:32:12;3.42;;;0.65;;
49812;SDS011;35706;52.100;5.056;2023-06-26T05:33:18;2.45;;;0.60;;
49812;SDS011;35706;52.100;5.056;2023-06-26T05:34:19;3.05;;;0.60;;
49812;SDS011;35706;52.100;5.056;2023-06-26T05:35:22;4.10;;;0.60;;
49812;SDS011;35706;52.100;5.056;2023-06-26T05:36:23;2.90;;;0.60;;
49812;SDS011;35706;52.100;5.056;2023-06-26T05:37:24;6.50;;;0.60;;
49812;SDS011;35706;52.100;5.056;2023-06-26T05:38:26;2.63;;;0.60;;
49812;SDS011;35706;52.100;5.056;2023-06-26T05:39:27;2.95;;;0.70;;
49812;SDS011;35706;52.100;5.056;2023-06-26T05:40:27;2.05;;;0.60;;
49812;SDS011;35706;52.100;5.056;2023-06-26T05:41:28;1.63;;;0.60;;
49812;SDS011;35706;52.100;5.056;2023-06-26T05:42:40;3.75;;;0.60;;
49812;SDS011;35706;52.100;5.056;2023-06-26T05:43:41;5.47;;;0.70;;
49812;SDS011;35706;52.100;5.056;2023-06-26T05:44:41;2.05;;;0.50;;
49812;SDS011;35706;52.100;5.056;2023-06-26T05:45:41;3.92;;;0.63;;
49812;SDS011;35706;52.100;5.056;2023-06-26T05:46:42;3.47;;;0.90;;
49812;SDS011;35706;52.100;5.056;2023-06-26T05:47:43;5.28;;;0.60;;
49812;SDS011;35706;52.100;5.056;2023-06-26T05:48:43;3.25;;;0.60;;
49812;SDS011;35706;52.100;5.056;2023-06-26T05:49:44;6.68;;;0.77;;
49812;SDS011;35706;52.100;5.056;2023-06-26T05:50:44;3.65;;;0.60;;
49812;SDS011;35706;52.100;5.056;2023-06-26T05:51:45;3.35;;;0.80;;
49812;SDS011;35706;52.100;5.056;2023-06-26T05:52:46;3.95;;;0.60;;
49812;SDS011;35706;52.100;5.056;2023-06-26T05:53:46;5.55;;;0.60;;
49812;SDS011;35706;52.100;5.056;2023-06-26T05:54:47;10.80;;;0.70;;
49812;SDS011;35706;52.100;5.056;2023-06-26T05:55:47;2.03;;;0.60;;
49812;SDS011;35706;52.100;5.056;2023-06-26T05:56:48;5.50;;;0.60;;
49812;SDS011;35706;52.100;5.056;2023-06-26T05:57:50;1.73;;;0.60;;
49812;SDS011;35706;52.100;5.056;2023-06-26T05:58:51;4.70;;;0.60;;
49812;SDS011;35706;52.100;5.056;2023-06-26T05:59:53;2.42;;;0.52;;
49812;SDS011;35706;52.100;5.056;2023-06-26T06:00:53;3.83;;;0.60;;
49812;SDS011;35706;52.100;5.056;2023-06-26T06:01:54;4.35;;;0.60;;
49812;SDS011;35706;52.100;5.056;2023-06-26T06:02:54;4.40;;;0.57;;
49812;SDS011;35706;52.100;5.056;2023-06-26T06:03:55;3.63;;;0.60;;
49812;SDS011;35706;52.100;5.056;2023-06-26T06:04:55;1.67;;;0.57;;
49812;SDS011;35706;52.100;5.056;2023-06-26T06:05:55;4.85;;;0.50;;
49812;SDS011;35706;52.100;5.056;2023-06-26T06:06:56;1.90;;;0.40;;
49812;SDS011;35706;52.100;5.056;2023-06-26T06:07:56;1.25;;;0.40;;
49812;SDS011;35706;52.100;5.056;2023-06-26T06:08:56;3.08;;;0.50;;
49812;SDS011;35706;52.100;5.056;2023-06-26T06:09:57;5.25;;;0.40;;
49812;SDS011;35706;52.100;5.056;2023-06-26T06:10:59;2.00;;;0.43;;
49812;SDS011;35706;52.100;5.056;2023-06-26T06:12:03;2.85;;;0.40;;
49812;SDS011;35706;52.100;5.056;2023-06-26T06:13:05;1.98;;;0.50;;
49812;SDS011;35706;52.100;5.056;2023-06-26T06:14:05;2.80;;;0.43;;